sensor_id;sensor_type;location;lat;lon;timestamp;P1;durP1;ratioP1;P2;durP2;ratioP2
12356;SDS011;6243;51.244;6.774;2023-03-19T00:01:47;4.13;;;3.10;;
12356;SDS011;6243;51.244;6.774;2023-03-19T00:04:12;3.97;;;3.17;;
12356;SDS011;6243;51.244;6.774;2023-03-19T00:06:38;5.07;;;3.30;;
12356;SDS011;6243;51.244;6.774;2023-03-19T00:09:03;3.20;;;2.80;;
12356;SDS011;6243;51.244;6.774;2023-03-19T00:11:29;4.77;;;2.90;;
12356;SDS011;6243;51.244;6.774;2023-03-19T00:13:55;5.87;;;3.37;;
12356;SDS011;6243;51.244;6.774;2023-03-19T00:16:22;5.27;;;3.00;;
12356;SDS011;6243;51.244;6.774;2023-03-19T00:18:48;3.67;;;2.80;;
12356;SDS011;6243;51.244;6.774;2023-03-19T00:21:13;4.00;;;2.77;;
12356;SDS011;6243;51.244;6.774;2023-03-19T00:23:39;4.90;;;2.97;;
12356;SDS011;6243;51.244;6.774;2023-03-19T00:26:04;3.47;;;2.47;;
12356;SDS011;6243;51.244;6.774;2023-03-19T00:28:30;4.87;;;2.70;;
12356;SDS011;6243;51.244;6.774;2023-03-19T00:30:55;5.90;;;2.73;;
12356;SDS011;6243;51.244;6.774;2023-03-19T00:33:22;4.40;;;2.80;;
12356;SDS011;6243;51.244;6.774;2023-03-19T00:35:48;3.30;;;3.00;;
12356;SDS011;6243;51.244;6.774;2023-03-19T00:38:13;3.40;;;2.60;;
12356;SDS011;6243;51.244;6.774;2023-03-19T00:40:39;6.30;;;2.80;;
12356;SDS011;6243;51.244;6.774;2023-03-19T00:43:05;4.67;;;3.07;;
12356;SDS011;6243;51.244;6.774;2023-03-19T00:45:30;4.17;;;3.00;;
12356;SDS011;6243;51.244;6.774;2023-03-19T00:47:56;3.27;;;2.80;;
12356;SDS011;6243;51.244;6.774;2023-03-19T00:50:23;3.50;;;2.93;;
12356;SDS011;6243;51.244;6.774;2023-03-19T00:52:48;4.73;;;2.97;;
12356;SDS011;6243;51.244;6.774;2023-03-19T00:55:14;5.93;;;3.40;;
12356;SDS011;6243;51.244;6.774;2023-03-19T00:57:40;4.90;;;2.70;;
12356;SDS011;6243;51.244;6.774;2023-03-19T01:00:06;4.03;;;2.70;;
12356;SDS011;6243;51.244;6.774;2023-03-19T01:02:32;4.27;;;2.70;;
12356;SDS011;6243;51.244;6.774;2023-03-19T01:04:57;4.30;;;2.80;;
12356;SDS011;6243;51.244;6.774;2023-03-19T01:07:24;4.07;;;2.87;;
12356;SDS011;6243;51.244;6.774;2023-03-19T01:09:50;3.80;;;2.93;;
12356;SDS011;6243;51.244;6.774;2023-03-19T01:12:15;3.57;;;3.20;;
12356;SDS011;6243;51.244;6.774;2023-03-19T01:14:41;3.33;;;2.97;;
12356;SDS011;6243;51.244;6.774;2023-03-19T01:17:06;3.10;;;2.80;;
12356;SDS011;6243;51.244;6.774;2023-03-19T01:19:32;3.80;;;3.17;;
12356;SDS011;6243;51.244;6.774;2023-03-19T01:21:57;4.30;;;3.70;;
12356;SDS011;6243;51.244;6.774;2023-03-19T01:24:27;3.80;;;3.13;;
12356;SDS011;6243;51.244;6.774;2023-03-19T01:26:53;3.80;;;2.90;;
12356;SDS011;6243;51.244;6.774;2023-03-19T01:29:19;5.10;;;3.10;;
12356;SDS011;6243;51.244;6.774;2023-03-19T01:31:44;5.37;;;3.27;;
12356;SDS011;6243;51.244;6.774;2023-03-19T01:34:10;3.90;;;3.13;;
12356;SDS011;6243;51.244;6.774;2023-03-19T01:36:35;5.20;;;3.47;;
12356;SDS011;6243;51.244;6.774;2023-03-19T01:39:01;7.23;;;3.77;;
12356;SDS011;6243;51.244;6.774;2023-03-19T01:41:28;4.47;;;3.20;;
12356;SDS011;6243;51.244;6.774;2023-03-19T01:43:53;4.53;;;3.17;;
12356;SDS011;6243;51.244;6.774;2023-03-19T01:46:21;5.20;;;3.20;;
12356;SDS011;6243;51.244;6.774;2023-03-19T01:48:52;4.67;;;3.50;;
12356;SDS011;6243;51.244;6.774;2023-03-19T01:51:20;4.97;;;3.47;;
12356;SDS011;6243;51.244;6.774;2023-03-19T01:53:50;5.07;;;3.40;;
12356;SDS011;6243;51.244;6.774;2023-03-19T01:56:21;6.07;;;3.53;;
12356;SDS011;6243;51.244;6.774;2023-03-19T01:58:52;4.03;;;3.17;;
12356;SDS011;6243;51.244;6.774;2023-03-19T02:01:21;4.70;;;2.83;;
12356;SDS011;6243;51.244;6.774;2023-03-19T02:03:46;4.77;;;3.00;;
12356;SDS011;6243;51.244;6.774;2023-03-19T02:06:15;4.47;;;3.40;;
12356;SDS011;6243;51.244;6.774;2023-03-19T02:08:43;4.57;;;3.83;;
12356;SDS011;6243;51.244;6.774;2023-03-19T02:11:10;3.77;;;3.37;;
12356;SDS011;6243;51.244;6.774;2023-03-19T02:13:35;5.13;;;4.10;;
12356;SDS011;6243;51.244;6.774;2023-03-19T02:16:02;4.43;;;3.70;;
12356;SDS011;6243;51.244;6.774;2023-03-19T02:18:28;7.50;;;3.70;;
12356;SDS011;6243;51.244;6.774;2023-03-19T02:20:55;5.20;;;3.97;;
12356;SDS011;6243;51.244;6.774;2023-03-19T02:23:29;5.83;;;4.30;;
12356;SDS011;6243;51.244;6.774;2023-03-19T02:26:05;6.53;;;4.10;;
12356;SDS011;6243;51.244;6.774;2023-03-19T02:28:32;4.73;;;4.03;;
12356;SDS011;6243;51.244;6.774;2023-03-19T02:31:00;4.93;;;3.57;;
12356;SDS011;6243;51.244;6.774;2023-03-19T02:33:26;5.50;;;3.63;;
12356;SDS011;6243;51.244;6.774;2023-03-19T02:35:51;4.17;;;3.77;;
12356;SDS011;6243;51.244;6.774;2023-03-19T02:38:18;5.23;;;3.63;;
12356;SDS011;6243;51.244;6.774;2023-03-19T02:40:44;4.40;;;3.37;;
12356;SDS011;6243;51.244;6.774;2023-03-19T02:43:16;6.60;;;3.90;;
12356;SDS011;6243;51.244;6.774;2023-03-19T02:45:41;5.00;;;3.47;;
12356;SDS011;6243;51.244;6.774;2023-03-19T02:48:07;4.63;;;3.60;;
12356;SDS011;6243;51.244;6.774;2023-03-19T02:50:33;4.80;;;3.87;;
12356;SDS011;6243;51.244;6.774;2023-03-19T02:52:58;4.53;;;3.60;;
12356;SDS011;6243;51.244;6.774;2023-03-19T02:55:24;5.60;;;3.70;;
12356;SDS011;6243;51.244;6.774;2023-03-19T02:57:50;4.63;;;3.73;;
12356;SDS011;6243;51.244;6.774;2023-03-19T03:00:17;8.20;;;4.83;;
12356;SDS011;6243;51.244;6.774;2023-03-19T03:02:43;10.87;;;6.30;;
12356;SDS011;6243;51.244;6.774;2023-03-19T03:05:09;5.90;;;3.70;;
12356;SDS011;6243;51.244;6.774;2023-03-19T03:07:34;7.23;;;4.20;;
12356;SDS011;6243;51.244;6.774;2023-03-19T03:10:00;6.50;;;3.77;;
12356;SDS011;6243;51.244;6.774;2023-03-19T03:12:25;5.87;;;3.40;;
12356;SDS011;6243;51.244;6.774;2023-03-19T03:14:51;3.90;;;3.23;;
12356;SDS011;6243;51.244;6.774;2023-03-19T03:17:18;3.87;;;3.40;;
12356;SDS011;6243;51.244;6.774;2023-03-19T03:19:43;4.70;;;3.43;;
12356;SDS011;6243;51.244;6.774;2023-03-19T03:22:09;5.20;;;3.90;;
12356;SDS011;6243;51.244;6.774;2023-03-19T03:24:34;4.27;;;3.20;;
12356;SDS011;6243;51.244;6.774;2023-03-19T03:27:00;5.27;;;3.20;;
12356;SDS011;6243;51.244;6.774;2023-03-19T03:29:25;5.07;;;3.30;;
12356;SDS011;6243;51.244;6.774;2023-03-19T03:31:51;3.93;;;3.20;;
12356;SDS011;6243;51.244;6.774;2023-03-19T03:34:18;4.40;;;3.20;;
12356;SDS011;6243;51.244;6.774;2023-03-19T03:36:43;4.83;;;3.37;;
12356;SDS011;6243;51.244;6.774;2023-03-19T03:39:09;5.63;;;2.83;;
12356;SDS011;6243;51.244;6.774;2023-03-19T03:41:34;5.30;;;3.30;;
12356;SDS011;6243;51.244;6.774;2023-03-19T03:44:00;3.67;;;3.10;;
12356;SDS011;6243;51.244;6.774;2023-03-19T03:46:25;3.90;;;3.20;;
12356;SDS011;6243;51.244;6.774;2023-03-19T03:48:51;8.37;;;5.00;;
12356;SDS011;6243;51.244;6.774;2023-03-19T03:51:18;5.37;;;3.30;;
12356;SDS011;6243;51.244;6.774;2023-03-19T03:53:43;3.30;;;2.90;;
12356;SDS011;6243;51.244;6.774;2023-03-19T03:56:09;4.70;;;2.50;;
12356;SDS011;6243;51.244;6.774;2023-03-19T03:58:34;4.90;;;3.20;;
12356;SDS011;6243;51.244;6.774;2023-03-19T04:01:00;4.70;;;2.77;;
12356;SDS011;6243;51.244;6.774;2023-03-19T04:03:25;4.57;;;2.43;;
12356;SDS011;6243;51.244;6.774;2023-03-19T04:05:51;3.20;;;2.90;;
12356;SDS011;6243;51.244;6.774;2023-03-19T04:08:18;4.70;;;2.70;;
12356;SDS011;6243;51.244;6.774;2023-03-19T04:10:43;4.23;;;2.90;;
12356;SDS011;6243;51.244;6.774;2023-03-19T04:13:09;4.80;;;2.50;;
12356;SDS011;6243;51.244;6.774;2023-03-19T04:15:35;6.17;;;2.90;;
12356;SDS011;6243;51.244;6.774;2023-03-19T04:18:00;4.67;;;2.80;;
12356;SDS011;6243;51.244;6.774;2023-03-19T04:20:26;4.43;;;2.80;;
12356;SDS011;6243;51.244;6.774;2023-03-19T04:22:52;4.93;;;2.60;;
12356;SDS011;6243;51.244;6.774;2023-03-19T04:25:18;4.87;;;3.20;;
12356;SDS011;6243;51.244;6.774;2023-03-19T04:27:44;3.57;;;2.90;;
12356;SDS011;6243;51.244;6.774;2023-03-19T04:30:10;4.10;;;2.80;;
12356;SDS011;6243;51.244;6.774;2023-03-19T04:32:36;3.87;;;2.70;;
12356;SDS011;6243;51.244;6.774;2023-03-19T04:35:02;3.53;;;2.97;;
12356;SDS011;6243;51.244;6.774;2023-03-19T04:37:28;3.40;;;2.87;;
12356;SDS011;6243;51.244;6.774;2023-03-19T04:39:54;3.63;;;2.60;;
12356;SDS011;6243;51.244;6.774;2023-03-19T04:42:21;6.20;;;2.80;;
12356;SDS011;6243;51.244;6.774;2023-03-19T04:44:47;2.70;;;2.50;;
12356;SDS011;6243;51.244;6.774;2023-03-19T04:47:12;3.27;;;2.30;;
12356;SDS011;6243;51.244;6.774;2023-03-19T04:49:38;3.53;;;2.47;;
12356;SDS011;6243;51.244;6.774;2023-03-19T04:52:03;4.40;;;2.70;;
12356;SDS011;6243;51.244;6.774;2023-03-19T04:54:29;2.77;;;2.37;;
12356;SDS011;6243;51.244;6.774;2023-03-19T04:56:55;4.40;;;2.50;;
12356;SDS011;6243;51.244;6.774;2023-03-19T04:59:22;3.90;;;2.60;;
12356;SDS011;6243;51.244;6.774;2023-03-19T05:01:48;2.87;;;2.57;;
12356;SDS011;6243;51.244;6.774;2023-03-19T05:04:13;5.00;;;2.63;;
12356;SDS011;6243;51.244;6.774;2023-03-19T05:06:39;4.33;;;2.70;;
12356;SDS011;6243;51.244;6.774;2023-03-19T05:09:04;5.53;;;2.37;;
12356;SDS011;6243;51.244;6.774;2023-03-19T05:11:30;3.33;;;2.60;;
12356;SDS011;6243;51.244;6.774;2023-03-19T05:13:56;4.50;;;3.00;;
12356;SDS011;6243;51.244;6.774;2023-03-19T05:16:23;3.83;;;3.07;;
12356;SDS011;6243;51.244;6.774;2023-03-19T05:18:49;4.93;;;2.70;;
12356;SDS011;6243;51.244;6.774;2023-03-19T05:21:14;3.77;;;2.50;;
12356;SDS011;6243;51.244;6.774;2023-03-19T05:23:40;3.67;;;2.70;;
12356;SDS011;6243;51.244;6.774;2023-03-19T05:26:06;2.73;;;2.40;;
12356;SDS011;6243;51.244;6.774;2023-03-19T05:28:32;2.83;;;2.57;;
12356;SDS011;6243;51.244;6.774;2023-03-19T05:30:57;4.53;;;2.97;;
12356;SDS011;6243;51.244;6.774;2023-03-19T05:33:24;3.17;;;2.47;;
12356;SDS011;6243;51.244;6.774;2023-03-19T05:35:50;3.00;;;2.33;;
12356;SDS011;6243;51.244;6.774;2023-03-19T05:38:15;5.57;;;2.77;;
12356;SDS011;6243;51.244;6.774;2023-03-19T05:40:41;4.57;;;2.60;;
12356;SDS011;6243;51.244;6.774;2023-03-19T05:43:06;3.83;;;2.40;;
12356;SDS011;6243;51.244;6.774;2023-03-19T05:45:32;4.40;;;2.53;;
12356;SDS011;6243;51.244;6.774;2023-03-19T05:47:57;5.37;;;3.03;;
12356;SDS011;6243;51.244;6.774;2023-03-19T05:50:24;3.63;;;2.80;;
12356;SDS011;6243;51.244;6.774;2023-03-19T05:52:50;4.73;;;2.70;;
12356;SDS011;6243;51.244;6.774;2023-03-19T05:55:15;5.63;;;2.60;;
12356;SDS011;6243;51.244;6.774;2023-03-19T05:57:41;5.17;;;2.73;;
12356;SDS011;6243;51.244;6.774;2023-03-19T06:00:07;5.90;;;3.30;;
12356;SDS011;6243;51.244;6.774;2023-03-19T06:02:34;3.10;;;2.70;;
12356;SDS011;6243;51.244;6.774;2023-03-19T06:05:00;4.57;;;2.63;;
12356;SDS011;6243;51.244;6.774;2023-03-19T06:07:27;2.60;;;2.40;;
12356;SDS011;6243;51.244;6.774;2023-03-19T06:09:52;2.77;;;2.50;;
12356;SDS011;6243;51.244;6.774;2023-03-19T06:12:18;3.17;;;2.37;;
12356;SDS011;6243;51.244;6.774;2023-03-19T06:14:43;2.83;;;2.57;;
12356;SDS011;6243;51.244;6.774;2023-03-19T06:17:09;4.10;;;2.70;;
12356;SDS011;6243;51.244;6.774;2023-03-19T06:19:35;2.93;;;2.37;;
12356;SDS011;6243;51.244;6.774;2023-03-19T06:22:00;3.10;;;2.40;;
12356;SDS011;6243;51.244;6.774;2023-03-19T06:24:27;6.20;;;2.80;;
12356;SDS011;6243;51.244;6.774;2023-03-19T06:26:53;2.80;;;2.50;;
12356;SDS011;6243;51.244;6.774;2023-03-19T06:29:18;3.20;;;2.90;;
12356;SDS011;6243;51.244;6.774;2023-03-19T06:31:43;3.40;;;2.80;;
12356;SDS011;6243;51.244;6.774;2023-03-19T06:34:09;5.63;;;3.40;;
12356;SDS011;6243;51.244;6.774;2023-03-19T06:36:34;3.90;;;2.70;;
12356;SDS011;6243;51.244;6.774;2023-03-19T06:39:00;4.13;;;3.10;;
12356;SDS011;6243;51.244;6.774;2023-03-19T06:41:27;4.57;;;3.50;;
12356;SDS011;6243;51.244;6.774;2023-03-19T06:43:52;5.00;;;3.30;;
12356;SDS011;6243;51.244;6.774;2023-03-19T06:46:18;3.33;;;2.90;;
12356;SDS011;6243;51.244;6.774;2023-03-19T06:48:43;3.50;;;3.00;;
12356;SDS011;6243;51.244;6.774;2023-03-19T06:51:09;5.03;;;2.80;;
12356;SDS011;6243;51.244;6.774;2023-03-19T06:53:34;3.33;;;3.00;;
12356;SDS011;6243;51.244;6.774;2023-03-19T06:56:00;4.93;;;3.73;;
12356;SDS011;6243;51.244;6.774;2023-03-19T06:58:27;5.30;;;3.27;;
12356;SDS011;6243;51.244;6.774;2023-03-19T07:00:52;5.87;;;3.33;;
12356;SDS011;6243;51.244;6.774;2023-03-19T07:03:18;3.20;;;2.70;;
12356;SDS011;6243;51.244;6.774;2023-03-19T07:05:43;4.53;;;3.00;;
12356;SDS011;6243;51.244;6.774;2023-03-19T07:08:09;3.63;;;3.27;;
12356;SDS011;6243;51.244;6.774;2023-03-19T07:10:34;4.17;;;3.10;;
12356;SDS011;6243;51.244;6.774;2023-03-19T07:13:00;4.00;;;2.90;;
12356;SDS011;6243;51.244;6.774;2023-03-19T07:15:27;3.43;;;2.90;;
12356;SDS011;6243;51.244;6.774;2023-03-19T07:17:52;5.20;;;3.07;;
12356;SDS011;6243;51.244;6.774;2023-03-19T07:20:18;4.00;;;2.70;;
12356;SDS011;6243;51.244;6.774;2023-03-19T07:22:43;4.53;;;2.90;;
12356;SDS011;6243;51.244;6.774;2023-03-19T07:25:09;2.93;;;2.67;;
12356;SDS011;6243;51.244;6.774;2023-03-19T07:27:34;3.70;;;2.90;;
12356;SDS011;6243;51.244;6.774;2023-03-19T07:30:00;3.67;;;3.17;;
12356;SDS011;6243;51.244;6.774;2023-03-19T07:32:27;4.07;;;3.07;;
12356;SDS011;6243;51.244;6.774;2023-03-19T07:34:54;3.93;;;2.83;;
12356;SDS011;6243;51.244;6.774;2023-03-19T07:37:19;4.50;;;2.87;;
12356;SDS011;6243;51.244;6.774;2023-03-19T07:39:44;3.83;;;3.10;;
12356;SDS011;6243;51.244;6.774;2023-03-19T07:42:10;4.37;;;2.93;;
12356;SDS011;6243;51.244;6.774;2023-03-19T07:44:36;3.20;;;2.67;;
12356;SDS011;6243;51.244;6.774;2023-03-19T07:47:01;4.47;;;3.40;;
12356;SDS011;6243;51.244;6.774;2023-03-19T07:49:28;3.03;;;2.53;;
12356;SDS011;6243;51.244;6.774;2023-03-19T07:51:53;3.80;;;2.97;;
12356;SDS011;6243;51.244;6.774;2023-03-19T07:54:19;4.10;;;3.20;;
12356;SDS011;6243;51.244;6.774;2023-03-19T07:56:44;3.70;;;3.30;;
12356;SDS011;6243;51.244;6.774;2023-03-19T07:59:10;4.27;;;3.00;;
12356;SDS011;6243;51.244;6.774;2023-03-19T08:01:35;3.50;;;2.90;;
12356;SDS011;6243;51.244;6.774;2023-03-19T08:04:01;3.60;;;3.30;;
12356;SDS011;6243;51.244;6.774;2023-03-19T08:06:28;3.30;;;3.00;;
12356;SDS011;6243;51.244;6.774;2023-03-19T08:08:53;3.10;;;2.73;;
12356;SDS011;6243;51.244;6.774;2023-03-19T08:11:19;4.37;;;3.03;;
12356;SDS011;6243;51.244;6.774;2023-03-19T08:13:44;3.63;;;2.83;;
12356;SDS011;6243;51.244;6.774;2023-03-19T08:16:10;4.63;;;3.03;;
12356;SDS011;6243;51.244;6.774;2023-03-19T08:18:35;3.07;;;2.77;;
12356;SDS011;6243;51.244;6.774;2023-03-19T08:21:01;3.10;;;2.90;;
12356;SDS011;6243;51.244;6.774;2023-03-19T08:23:28;2.77;;;2.57;;
12356;SDS011;6243;51.244;6.774;2023-03-19T08:25:53;3.57;;;3.20;;
12356;SDS011;6243;51.244;6.774;2023-03-19T08:28:19;3.23;;;2.93;;
12356;SDS011;6243;51.244;6.774;2023-03-19T08:30:45;3.67;;;3.03;;
12356;SDS011;6243;51.244;6.774;2023-03-19T08:33:10;3.50;;;2.87;;
12356;SDS011;6243;51.244;6.774;2023-03-19T08:35:36;3.53;;;3.23;;
12356;SDS011;6243;51.244;6.774;2023-03-19T08:38:02;3.10;;;2.80;;
12356;SDS011;6243;51.244;6.774;2023-03-19T08:40:29;3.10;;;2.90;;
12356;SDS011;6243;51.244;6.774;2023-03-19T08:42:55;2.90;;;2.70;;
12356;SDS011;6243;51.244;6.774;2023-03-19T08:45:21;3.40;;;3.10;;
12356;SDS011;6243;51.244;6.774;2023-03-19T08:47:46;4.20;;;3.20;;
12356;SDS011;6243;51.244;6.774;2023-03-19T08:50:13;5.03;;;3.60;;
12356;SDS011;6243;51.244;6.774;2023-03-19T08:52:38;3.20;;;2.90;;
12356;SDS011;6243;51.244;6.774;2023-03-19T08:55:05;4.33;;;2.87;;
12356;SDS011;6243;51.244;6.774;2023-03-19T08:57:32;2.97;;;2.73;;
12356;SDS011;6243;51.244;6.774;2023-03-19T08:59:58;3.13;;;2.83;;
12356;SDS011;6243;51.244;6.774;2023-03-19T09:02:24;3.23;;;2.93;;
12356;SDS011;6243;51.244;6.774;2023-03-19T09:04:49;4.53;;;3.47;;
12356;SDS011;6243;51.244;6.774;2023-03-19T09:07:15;3.50;;;3.20;;
12356;SDS011;6243;51.244;6.774;2023-03-19T09:09:41;3.37;;;3.07;;
12356;SDS011;6243;51.244;6.774;2023-03-19T09:12:07;3.67;;;3.37;;
12356;SDS011;6243;51.244;6.774;2023-03-19T09:14:36;3.63;;;3.33;;
12356;SDS011;6243;51.244;6.774;2023-03-19T09:17:02;4.07;;;3.77;;
12356;SDS011;6243;51.244;6.774;2023-03-19T09:19:27;4.83;;;3.73;;
12356;SDS011;6243;51.244;6.774;2023-03-19T09:21:53;3.70;;;3.40;;
12356;SDS011;6243;51.244;6.774;2023-03-19T09:24:19;4.10;;;3.30;;
12356;SDS011;6243;51.244;6.774;2023-03-19T09:26:44;6.17;;;3.77;;
12356;SDS011;6243;51.244;6.774;2023-03-19T09:29:10;3.70;;;3.40;;
12356;SDS011;6243;51.244;6.774;2023-03-19T09:31:37;3.40;;;3.10;;
12356;SDS011;6243;51.244;6.774;2023-03-19T09:34:03;3.43;;;2.93;;
12356;SDS011;6243;51.244;6.774;2023-03-19T09:36:29;3.20;;;2.90;;
12356;SDS011;6243;51.244;6.774;2023-03-19T09:38:54;3.83;;;2.97;;
12356;SDS011;6243;51.244;6.774;2023-03-19T09:41:23;2.90;;;2.70;;
12356;SDS011;6243;51.244;6.774;2023-03-19T09:43:57;4.37;;;2.83;;
12356;SDS011;6243;51.244;6.774;2023-03-19T09:46:26;3.07;;;2.70;;
12356;SDS011;6243;51.244;6.774;2023-03-19T09:48:59;3.23;;;2.93;;
12356;SDS011;6243;51.244;6.774;2023-03-19T09:51:32;3.63;;;3.33;;
12356;SDS011;6243;51.244;6.774;2023-03-19T09:54:05;3.90;;;3.50;;
12356;SDS011;6243;51.244;6.774;2023-03-19T09:56:32;3.63;;;3.33;;
12356;SDS011;6243;51.244;6.774;2023-03-19T09:58:58;3.00;;;2.70;;
12356;SDS011;6243;51.244;6.774;2023-03-19T10:01:25;3.80;;;3.40;;
12356;SDS011;6243;51.244;6.774;2023-03-19T10:04:02;3.43;;;3.13;;
12356;SDS011;6243;51.244;6.774;2023-03-19T10:06:42;4.00;;;3.00;;
12356;SDS011;6243;51.244;6.774;2023-03-19T10:09:14;3.60;;;3.30;;
12356;SDS011;6243;51.244;6.774;2023-03-19T10:11:58;4.33;;;2.53;;
12356;SDS011;6243;51.244;6.774;2023-03-19T10:14:47;2.97;;;2.67;;
12356;SDS011;6243;51.244;6.774;2023-03-19T10:17:26;3.43;;;2.93;;
12356;SDS011;6243;51.244;6.774;2023-03-19T10:19:57;3.30;;;3.00;;
12356;SDS011;6243;51.244;6.774;2023-03-19T10:22:27;3.13;;;2.60;;
12356;SDS011;6243;51.244;6.774;2023-03-19T10:24:56;3.57;;;3.10;;
12356;SDS011;6243;51.244;6.774;2023-03-19T10:27:25;3.50;;;3.20;;
12356;SDS011;6243;51.244;6.774;2023-03-19T10:29:51;3.27;;;2.97;;
12356;SDS011;6243;51.244;6.774;2023-03-19T10:32:18;4.27;;;3.87;;
12356;SDS011;6243;51.244;6.774;2023-03-19T10:34:45;3.80;;;3.50;;
12356;SDS011;6243;51.244;6.774;2023-03-19T10:37:14;5.80;;;4.07;;
12356;SDS011;6243;51.244;6.774;2023-03-19T10:39:42;3.87;;;3.47;;
12356;SDS011;6243;51.244;6.774;2023-03-19T10:42:17;4.30;;;4.00;;
12356;SDS011;6243;51.244;6.774;2023-03-19T10:44:51;4.23;;;3.93;;
12356;SDS011;6243;51.244;6.774;2023-03-19T10:47:21;4.27;;;3.90;;
12356;SDS011;6243;51.244;6.774;2023-03-19T10:49:49;4.80;;;4.40;;
12356;SDS011;6243;51.244;6.774;2023-03-19T10:52:18;4.80;;;4.40;;
12356;SDS011;6243;51.244;6.774;2023-03-19T10:54:46;4.90;;;4.47;;
12356;SDS011;6243;51.244;6.774;2023-03-19T10:57:20;5.00;;;4.60;;
12356;SDS011;6243;51.244;6.774;2023-03-19T10:59:48;4.50;;;4.20;;
12356;SDS011;6243;51.244;6.774;2023-03-19T11:02:14;6.13;;;5.53;;
12356;SDS011;6243;51.244;6.774;2023-03-19T11:04:41;5.27;;;4.77;;
12356;SDS011;6243;51.244;6.774;2023-03-19T11:07:08;5.43;;;4.50;;
12356;SDS011;6243;51.244;6.774;2023-03-19T11:09:39;6.30;;;5.27;;
12356;SDS011;6243;51.244;6.774;2023-03-19T11:12:07;5.27;;;4.77;;
12356;SDS011;6243;51.244;6.774;2023-03-19T11:14:41;4.80;;;4.40;;
12356;SDS011;6243;51.244;6.774;2023-03-19T11:17:14;4.73;;;4.33;;
12356;SDS011;6243;51.244;6.774;2023-03-19T11:19:47;4.63;;;4.23;;
12356;SDS011;6243;51.244;6.774;2023-03-19T11:22:16;4.90;;;4.50;;
12356;SDS011;6243;51.244;6.774;2023-03-19T11:24:49;5.10;;;4.13;;
12356;SDS011;6243;51.244;6.774;2023-03-19T11:27:17;4.23;;;3.83;;
12356;SDS011;6243;51.244;6.774;2023-03-19T11:29:43;4.50;;;4.10;;
12356;SDS011;6243;51.244;6.774;2023-03-19T11:32:13;4.50;;;4.10;;
12356;SDS011;6243;51.244;6.774;2023-03-19T11:34:48;4.13;;;3.73;;
12356;SDS011;6243;51.244;6.774;2023-03-19T11:37:21;4.83;;;3.80;;
12356;SDS011;6243;51.244;6.774;2023-03-19T11:39:58;3.80;;;3.50;;
12356;SDS011;6243;51.244;6.774;2023-03-19T11:42:44;3.57;;;3.20;;
12356;SDS011;6243;51.244;6.774;2023-03-19T11:45:26;3.70;;;2.50;;
12356;SDS011;6243;51.244;6.774;2023-03-19T11:48:00;3.23;;;2.93;;
12356;SDS011;6243;51.244;6.774;2023-03-19T11:50:38;3.23;;;2.93;;
12356;SDS011;6243;51.244;6.774;2023-03-19T11:53:13;3.80;;;3.40;;
12356;SDS011;6243;51.244;6.774;2023-03-19T11:55:49;3.70;;;3.10;;
12356;SDS011;6243;51.244;6.774;2023-03-19T11:58:35;3.83;;;3.10;;
12356;SDS011;6243;51.244;6.774;2023-03-19T12:01:14;4.20;;;2.93;;
12356;SDS011;6243;51.244;6.774;2023-03-19T12:03:55;3.57;;;2.67;;
12356;SDS011;6243;51.244;6.774;2023-03-19T12:06:32;3.13;;;2.50;;
12356;SDS011;6243;51.244;6.774;2023-03-19T12:09:08;3.53;;;2.80;;
12356;SDS011;6243;51.244;6.774;2023-03-19T12:11:44;2.27;;;2.13;;
12356;SDS011;6243;51.244;6.774;2023-03-19T12:14:19;3.10;;;2.70;;
12356;SDS011;6243;51.244;6.774;2023-03-19T12:16:57;2.43;;;2.23;;
12356;SDS011;6243;51.244;6.774;2023-03-19T12:19:38;3.00;;;2.70;;
12356;SDS011;6243;51.244;6.774;2023-03-19T12:22:22;3.27;;;2.50;;
12356;SDS011;6243;51.244;6.774;2023-03-19T12:25:08;3.93;;;2.57;;
12356;SDS011;6243;51.244;6.774;2023-03-19T12:27:51;3.50;;;2.70;;
12356;SDS011;6243;51.244;6.774;2023-03-19T12:30:22;2.43;;;2.13;;
12356;SDS011;6243;51.244;6.774;2023-03-19T12:32:58;2.80;;;2.23;;
12356;SDS011;6243;51.244;6.774;2023-03-19T12:35:34;3.00;;;2.23;;
12356;SDS011;6243;51.244;6.774;2023-03-19T12:38:02;3.63;;;3.10;;
12356;SDS011;6243;51.244;6.774;2023-03-19T12:40:34;2.47;;;2.27;;
12356;SDS011;6243;51.244;6.774;2023-03-19T12:43:06;2.47;;;2.27;;
12356;SDS011;6243;51.244;6.774;2023-03-19T12:45:41;3.00;;;2.50;;
12356;SDS011;6243;51.244;6.774;2023-03-19T12:48:10;2.90;;;2.60;;
12356;SDS011;6243;51.244;6.774;2023-03-19T12:50:39;3.10;;;2.37;;
12356;SDS011;6243;51.244;6.774;2023-03-19T12:53:09;2.90;;;2.60;;
12356;SDS011;6243;51.244;6.774;2023-03-19T12:55:52;2.87;;;2.53;;
12356;SDS011;6243;51.244;6.774;2023-03-19T12:58:24;3.30;;;2.60;;
12356;SDS011;6243;51.244;6.774;2023-03-19T13:00:57;2.47;;;2.10;;
12356;SDS011;6243;51.244;6.774;2023-03-19T13:03:27;3.10;;;2.10;;
12356;SDS011;6243;51.244;6.774;2023-03-19T13:06:02;2.50;;;1.93;;
12356;SDS011;6243;51.244;6.774;2023-03-19T13:08:34;2.43;;;2.23;;
12356;SDS011;6243;51.244;6.774;2023-03-19T13:11:05;3.43;;;2.70;;
12356;SDS011;6243;51.244;6.774;2023-03-19T13:13:40;2.93;;;2.07;;
12356;SDS011;6243;51.244;6.774;2023-03-19T13:16:27;3.30;;;2.70;;
12356;SDS011;6243;51.244;6.774;2023-03-19T13:18:59;4.00;;;2.87;;
12356;SDS011;6243;51.244;6.774;2023-03-19T13:21:32;3.17;;;2.87;;
12356;SDS011;6243;51.244;6.774;2023-03-19T13:24:02;3.40;;;2.90;;
12356;SDS011;6243;51.244;6.774;2023-03-19T13:26:32;2.60;;;2.40;;
12356;SDS011;6243;51.244;6.774;2023-03-19T13:29:00;2.53;;;2.33;;
12356;SDS011;6243;51.244;6.774;2023-03-19T13:31:32;2.53;;;2.33;;
12356;SDS011;6243;51.244;6.774;2023-03-19T13:34:00;2.63;;;2.40;;
12356;SDS011;6243;51.244;6.774;2023-03-19T13:36:28;2.70;;;2.50;;
12356;SDS011;6243;51.244;6.774;2023-03-19T13:38:54;3.27;;;2.67;;
12356;SDS011;6243;51.244;6.774;2023-03-19T13:44:25;2.63;;;2.40;;
12356;SDS011;6243;51.244;6.774;2023-03-19T13:46:59;3.53;;;2.80;;
12356;SDS011;6243;51.244;6.774;2023-03-19T13:49:26;3.83;;;2.60;;
12356;SDS011;6243;51.244;6.774;2023-03-19T13:51:54;3.87;;;2.60;;
12356;SDS011;6243;51.244;6.774;2023-03-19T13:54:30;3.07;;;2.80;;
12356;SDS011;6243;51.244;6.774;2023-03-19T13:57:10;5.60;;;2.83;;
12356;SDS011;6243;51.244;6.774;2023-03-19T13:59:44;3.27;;;2.93;;
12356;SDS011;6243;51.244;6.774;2023-03-19T14:05:16;2.90;;;2.67;;
12356;SDS011;6243;51.244;6.774;2023-03-19T14:07:44;3.70;;;3.30;;
12356;SDS011;6243;51.244;6.774;2023-03-19T14:10:24;4.53;;;3.87;;
12356;SDS011;6243;51.244;6.774;2023-03-19T14:12:59;5.07;;;4.57;;
12356;SDS011;6243;51.244;6.774;2023-03-19T14:15:28;4.50;;;4.10;;
12356;SDS011;6243;51.244;6.774;2023-03-19T14:17:56;4.73;;;4.17;;
12356;SDS011;6243;51.244;6.774;2023-03-19T14:20:25;4.57;;;4.27;;
12356;SDS011;6243;51.244;6.774;2023-03-19T14:22:53;5.33;;;4.83;;
12356;SDS011;6243;51.244;6.774;2023-03-19T14:25:20;5.30;;;4.60;;
12356;SDS011;6243;51.244;6.774;2023-03-19T14:27:47;4.90;;;4.50;;
12356;SDS011;6243;51.244;6.774;2023-03-19T14:30:17;5.10;;;4.70;;
12356;SDS011;6243;51.244;6.774;2023-03-19T14:32:52;4.73;;;4.33;;
12356;SDS011;6243;51.244;6.774;2023-03-19T14:35:20;5.20;;;4.70;;
12356;SDS011;6243;51.244;6.774;2023-03-19T14:37:50;5.13;;;4.63;;
12356;SDS011;6243;51.244;6.774;2023-03-19T14:40:17;4.97;;;4.57;;
12356;SDS011;6243;51.244;6.774;2023-03-19T14:42:50;5.10;;;4.60;;
12356;SDS011;6243;51.244;6.774;2023-03-19T14:45:34;5.23;;;4.83;;
12356;SDS011;6243;51.244;6.774;2023-03-19T14:48:16;4.67;;;4.20;;
12356;SDS011;6243;51.244;6.774;2023-03-19T14:51:01;4.53;;;4.13;;
12356;SDS011;6243;51.244;6.774;2023-03-19T14:53:34;4.77;;;4.37;;
12356;SDS011;6243;51.244;6.774;2023-03-19T14:56:09;4.23;;;3.70;;
12356;SDS011;6243;51.244;6.774;2023-03-19T14:58:46;4.30;;;3.90;;
12356;SDS011;6243;51.244;6.774;2023-03-19T15:01:12;4.70;;;4.23;;
12356;SDS011;6243;51.244;6.774;2023-03-19T15:03:39;5.23;;;4.00;;
12356;SDS011;6243;51.244;6.774;2023-03-19T15:06:06;4.40;;;4.00;;
12356;SDS011;6243;51.244;6.774;2023-03-19T15:08:36;4.53;;;4.13;;
12356;SDS011;6243;51.244;6.774;2023-03-19T15:11:09;5.03;;;4.37;;
12356;SDS011;6243;51.244;6.774;2023-03-19T15:13:52;4.97;;;4.33;;